sensor_id;sensor_type;location;lat;lon;timestamp;temperature;humidity
10572;DHT22;5334;48.928;12.704;2023-03-11T00:02:18;3.30;99.90
10572;DHT22;5334;48.928;12.704;2023-03-11T00:04:43;3.30;99.90
10572;DHT22;5334;48.928;12.704;2023-03-11T00:07:10;3.30;99.90
10572;DHT22;5334;48.928;12.704;2023-03-11T00:09:36;3.30;99.90
10572;DHT22;5334;48.928;12.704;2023-03-11T00:12:02;3.30;99.90
10572;DHT22;5334;48.928;12.704;2023-03-11T00:14:28;3.30;99.90
10572;DHT22;5334;48.928;12.704;2023-03-11T00:16:54;3.40;99.90
10572;DHT22;5334;48.928;12.704;2023-03-11T00:19:20;3.40;99.90
10572;DHT22;5334;48.928;12.704;2023-03-11T00:21:45;3.50;99.90
10572;DHT22;5334;48.928;12.704;2023-03-11T00:24:11;3.50;99.90
10572;DHT22;5334;48.928;12.704;2023-03-11T00:26:37;3.40;99.90
10572;DHT22;5334;48.928;12.704;2023-03-11T00:29:02;3.40;99.90
10572;DHT22;5334;48.928;12.704;2023-03-11T00:31:28;3.40;99.90
10572;DHT22;5334;48.928;12.704;2023-03-11T00:33:54;3.40;99.90
10572;DHT22;5334;48.928;12.704;2023-03-11T00:36:22;3.40;99.90
10572;DHT22;5334;48.928;12.704;2023-03-11T00:38:49;3.40;99.90
10572;DHT22;5334;48.928;12.704;2023-03-11T00:41:15;3.30;99.90
10572;DHT22;5334;48.928;12.704;2023-03-11T00:43:41;3.30;99.90
10572;DHT22;5334;48.928;12.704;2023-03-11T00:46:07;3.30;99.90
10572;DHT22;5334;48.928;12.704;2023-03-11T00:48:33;3.30;99.90
10572;DHT22;5334;48.928;12.704;2023-03-11T00:50:59;3.20;99.90
10572;DHT22;5334;48.928;12.704;2023-03-11T00:53:24;3.30;99.90
10572;DHT22;5334;48.928;12.704;2023-03-11T00:55:50;3.30;99.90
10572;DHT22;5334;48.928;12.704;2023-03-11T00:58:15;3.30;99.90
10572;DHT22;5334;48.928;12.704;2023-03-11T01:00:41;3.20;99.90
10572;DHT22;5334;48.928;12.704;2023-03-11T01:03:07;3.30;99.90
10572;DHT22;5334;48.928;12.704;2023-03-11T01:05:33;3.10;99.90
10572;DHT22;5334;48.928;12.704;2023-03-11T01:07:59;3.10;99.90
10572;DHT22;5334;48.928;12.704;2023-03-11T01:10:26;3.10;99.90
10572;DHT22;5334;48.928;12.704;2023-03-11T01:12:52;3.00;99.90
10572;DHT22;5334;48.928;12.704;2023-03-11T01:15:24;3.00;99.90
10572;DHT22;5334;48.928;12.704;2023-03-11T01:17:50;2.90;99.90
10572;DHT22;5334;48.928;12.704;2023-03-11T01:20:16;3.00;99.90
10572;DHT22;5334;48.928;12.704;2023-03-11T01:22:42;3.00;99.90
10572;DHT22;5334;48.928;12.704;2023-03-11T01:25:11;3.00;99.90
10572;DHT22;5334;48.928;12.704;2023-03-11T01:27:37;3.00;99.90
10572;DHT22;5334;48.928;12.704;2023-03-11T01:30:03;2.90;99.90
10572;DHT22;5334;48.928;12.704;2023-03-11T01:32:29;3.00;99.90
10572;DHT22;5334;48.928;12.704;2023-03-11T01:34:55;2.90;99.90
10572;DHT22;5334;48.928;12.704;2023-03-11T01:37:20;3.00;99.90
10572;DHT22;5334;48.928;12.704;2023-03-11T01:39:46;2.90;99.90
10572;DHT22;5334;48.928;12.704;2023-03-11T01:42:12;2.90;99.90
10572;DHT22;5334;48.928;12.704;2023-03-11T01:44:37;2.90;99.90
10572;DHT22;5334;48.928;12.704;2023-03-11T01:49:29;2.90;99.90
10572;DHT22;5334;48.928;12.704;2023-03-11T01:51:57;2.90;99.90
10572;DHT22;5334;48.928;12.704;2023-03-11T01:54:30;3.10;99.90
10572;DHT22;5334;48.928;12.704;2023-03-11T01:56:58;2.90;99.90
10572;DHT22;5334;48.928;12.704;2023-03-11T01:59:28;2.90;99.90
10572;DHT22;5334;48.928;12.704;2023-03-11T02:04:44;2.90;99.90
10572;DHT22;5334;48.928;12.704;2023-03-11T02:07:11;2.90;99.90
10572;DHT22;5334;48.928;12.704;2023-03-11T02:09:38;2.90;99.90
10572;DHT22;5334;48.928;12.704;2023-03-11T02:12:05;2.90;99.90
10572;DHT22;5334;48.928;12.704;2023-03-11T02:14:32;2.80;99.90
10572;DHT22;5334;48.928;12.704;2023-03-11T02:16:59;2.80;99.90
10572;DHT22;5334;48.928;12.704;2023-03-11T02:22:09;2.80;99.90
10572;DHT22;5334;48.928;12.704;2023-03-11T02:24:38;2.90;99.90
10572;DHT22;5334;48.928;12.704;2023-03-11T02:27:08;2.80;99.90
10572;DHT22;5334;48.928;12.704;2023-03-11T02:29:35;2.80;99.90
10572;DHT22;5334;48.928;12.704;2023-03-11T02:34:31;2.80;99.90
10572;DHT22;5334;48.928;12.704;2023-03-11T02:36:58;2.80;99.90
10572;DHT22;5334;48.928;12.704;2023-03-11T02:39:37;2.70;99.90
10572;DHT22;5334;48.928;12.704;2023-03-11T02:42:29;2.70;99.90
10572;DHT22;5334;48.928;12.704;2023-03-11T02:45:20;2.70;99.90
10572;DHT22;5334;48.928;12.704;2023-03-11T02:47:47;2.70;99.90
10572;DHT22;5334;48.928;12.704;2023-03-11T02:50:15;2.70;99.90
10572;DHT22;5334;48.928;12.704;2023-03-11T02:52:41;2.70;99.90
10572;DHT22;5334;48.928;12.704;2023-03-11T02:55:08;2.70;99.90
10572;DHT22;5334;48.928;12.704;2023-03-11T02:57:36;2.70;99.90
10572;DHT22;5334;48.928;12.704;2023-03-11T03:02:35;2.60;99.90
10572;DHT22;5334;48.928;12.704;2023-03-11T03:05:01;2.60;99.90
10572;DHT22;5334;48.928;12.704;2023-03-11T03:07:27;2.60;99.90
10572;DHT22;5334;48.928;12.704;2023-03-11T03:09:53;2.70;99.90
10572;DHT22;5334;48.928;12.704;2023-03-11T03:12:19;2.60;99.90
10572;DHT22;5334;48.928;12.704;2023-03-11T03:14:45;2.60;99.90
10572;DHT22;5334;48.928;12.704;2023-03-11T03:17:10;2.70;99.90
10572;DHT22;5334;48.928;12.704;2023-03-11T03:19:36;2.60;99.90
10572;DHT22;5334;48.928;12.704;2023-03-11T03:22:02;2.60;99.90
10572;DHT22;5334;48.928;12.704;2023-03-11T03:24:27;2.60;99.90
10572;DHT22;5334;48.928;12.704;2023-03-11T03:26:53;2.60;99.90
10572;DHT22;5334;48.928;12.704;2023-03-11T03:29:19;2.60;99.90
10572;DHT22;5334;48.928;12.704;2023-03-11T03:31:44;2.60;99.90
10572;DHT22;5334;48.928;12.704;2023-03-11T03:34:10;2.60;99.90
10572;DHT22;5334;48.928;12.704;2023-03-11T03:36:36;2.50;99.90
10572;DHT22;5334;48.928;12.704;2023-03-11T03:39:02;2.50;99.90
10572;DHT22;5334;48.928;12.704;2023-03-11T03:41:28;2.50;99.90
10572;DHT22;5334;48.928;12.704;2023-03-11T03:43:54;2.60;99.90
10572;DHT22;5334;48.928;12.704;2023-03-11T03:46:20;2.50;99.90
10572;DHT22;5334;48.928;12.704;2023-03-11T03:48:46;2.40;99.90
10572;DHT22;5334;48.928;12.704;2023-03-11T03:51:12;2.50;99.90
10572;DHT22;5334;48.928;12.704;2023-03-11T03:53:39;2.50;99.90
10572;DHT22;5334;48.928;12.704;2023-03-11T03:56:06;2.40;99.90
10572;DHT22;5334;48.928;12.704;2023-03-11T03:58:32;2.40;99.90
10572;DHT22;5334;48.928;12.704;2023-03-11T04:00:59;2.40;99.90
10572;DHT22;5334;48.928;12.704;2023-03-11T04:05:52;2.40;99.90
10572;DHT22;5334;48.928;12.704;2023-03-11T04:08:18;2.30;99.90
10572;DHT22;5334;48.928;12.704;2023-03-11T04:10:44;2.30;99.90
10572;DHT22;5334;48.928;12.704;2023-03-11T04:13:10;2.30;99.90
10572;DHT22;5334;48.928;12.704;2023-03-11T04:15:39;2.30;99.90
10572;DHT22;5334;48.928;12.704;2023-03-11T04:18:04;2.20;99.90
10572;DHT22;5334;48.928;12.704;2023-03-11T04:20:30;2.20;99.90
10572;DHT22;5334;48.928;12.704;2023-03-11T04:22:56;2.10;99.90
10572;DHT22;5334;48.928;12.704;2023-03-11T04:25:21;2.10;99.90
10572;DHT22;5334;48.928;12.704;2023-03-11T04:27:47;2.10;99.90
10572;DHT22;5334;48.928;12.704;2023-03-11T04:30:14;2.10;99.90
10572;DHT22;5334;48.928;12.704;2023-03-11T04:32:40;2.00;99.90
10572;DHT22;5334;48.928;12.704;2023-03-11T04:35:06;2.10;99.90
10572;DHT22;5334;48.928;12.704;2023-03-11T04:37:32;2.00;99.90
10572;DHT22;5334;48.928;12.704;2023-03-11T04:39:58;2.00;99.90
10572;DHT22;5334;48.928;12.704;2023-03-11T04:42:23;2.00;99.90
10572;DHT22;5334;48.928;12.704;2023-03-11T04:44:49;2.00;99.90
10572;DHT22;5334;48.928;12.704;2023-03-11T04:47:15;1.90;99.90
10572;DHT22;5334;48.928;12.704;2023-03-11T04:52:06;1.90;99.90
10572;DHT22;5334;48.928;12.704;2023-03-11T04:54:32;1.90;99.90
10572;DHT22;5334;48.928;12.704;2023-03-11T04:56:58;1.90;99.90
10572;DHT22;5334;48.928;12.704;2023-03-11T04:59:23;1.90;99.90
10572;DHT22;5334;48.928;12.704;2023-03-11T05:01:49;2.00;99.90
10572;DHT22;5334;48.928;12.704;2023-03-11T05:04:15;1.90;99.90
10572;DHT22;5334;48.928;12.704;2023-03-11T05:06:41;1.90;99.90
10572;DHT22;5334;48.928;12.704;2023-03-11T05:09:06;1.90;99.90
10572;DHT22;5334;48.928;12.704;2023-03-11T05:11:32;1.90;99.90
10572;DHT22;5334;48.928;12.704;2023-03-11T05:13:57;2.00;99.90
10572;DHT22;5334;48.928;12.704;2023-03-11T05:16:23;1.90;99.90
10572;DHT22;5334;48.928;12.704;2023-03-11T05:18:49;1.90;99.90
10572;DHT22;5334;48.928;12.704;2023-03-11T05:21:14;1.90;99.90
10572;DHT22;5334;48.928;12.704;2023-03-11T05:23:40;1.80;99.90
10572;DHT22;5334;48.928;12.704;2023-03-11T05:26:06;1.80;99.90
10572;DHT22;5334;48.928;12.704;2023-03-11T05:28:32;1.70;99.90
10572;DHT22;5334;48.928;12.704;2023-03-11T05:30:58;1.70;99.90
10572;DHT22;5334;48.928;12.704;2023-03-11T05:33:23;1.70;99.90
10572;DHT22;5334;48.928;12.704;2023-03-11T05:35:49;1.80;99.90
10572;DHT22;5334;48.928;12.704;2023-03-11T05:38:16;1.80;99.90
10572;DHT22;5334;48.928;12.704;2023-03-11T05:40:41;1.70;99.90
10572;DHT22;5334;48.928;12.704;2023-03-11T05:43:07;1.80;99.90
10572;DHT22;5334;48.928;12.704;2023-03-11T05:45:33;1.70;99.90
10572;DHT22;5334;48.928;12.704;2023-03-11T05:47:59;1.60;99.90
10572;DHT22;5334;48.928;12.704;2023-03-11T05:50:25;1.60;99.90
10572;DHT22;5334;48.928;12.704;2023-03-11T05:52:51;1.60;99.90
10572;DHT22;5334;48.928;12.704;2023-03-11T05:55:16;1.50;99.90
10572;DHT22;5334;48.928;12.704;2023-03-11T05:57:42;1.50;99.90
10572;DHT22;5334;48.928;12.704;2023-03-11T06:00:08;1.50;99.90
10572;DHT22;5334;48.928;12.704;2023-03-11T06:05:03;2.30;99.90
10572;DHT22;5334;48.928;12.704;2023-03-11T06:07:29;1.40;99.90
10572;DHT22;5334;48.928;12.704;2023-03-11T06:09:54;1.40;99.90
10572;DHT22;5334;48.928;12.704;2023-03-11T06:12:20;1.40;99.90
10572;DHT22;5334;48.928;12.704;2023-03-11T06:14:46;1.40;99.90
10572;DHT22;5334;48.928;12.704;2023-03-11T06:17:11;1.40;99.90
10572;DHT22;5334;48.928;12.704;2023-03-11T06:19:37;1.40;99.90
10572;DHT22;5334;48.928;12.704;2023-03-11T06:22:02;1.40;99.90
10572;DHT22;5334;48.928;12.704;2023-03-11T06:24:28;1.40;99.90
10572;DHT22;5334;48.928;12.704;2023-03-11T06:26:54;1.40;99.90
10572;DHT22;5334;48.928;12.704;2023-03-11T06:29:19;1.40;99.90
10572;DHT22;5334;48.928;12.704;2023-03-11T06:31:48;1.40;99.90
10572;DHT22;5334;48.928;12.704;2023-03-11T06:34:14;1.40;99.90
10572;DHT22;5334;48.928;12.704;2023-03-11T06:36:40;1.40;99.90
10572;DHT22;5334;48.928;12.704;2023-03-11T06:39:05;1.40;99.90
10572;DHT22;5334;48.928;12.704;2023-03-11T06:41:34;1.40;99.90
10572;DHT22;5334;48.928;12.704;2023-03-11T06:44:00;1.50;99.90
10572;DHT22;5334;48.928;12.704;2023-03-11T06:46:25;1.50;99.90
10572;DHT22;5334;48.928;12.704;2023-03-11T06:48:51;1.50;99.90
10572;DHT22;5334;48.928;12.704;2023-03-11T06:51:18;1.50;99.90
10572;DHT22;5334;48.928;12.704;2023-03-11T06:53:51;1.60;99.90
10572;DHT22;5334;48.928;12.704;2023-03-11T06:56:17;1.50;99.90
10572;DHT22;5334;48.928;12.704;2023-03-11T06:58:43;1.50;99.90
10572;DHT22;5334;48.928;12.704;2023-03-11T07:01:12;1.60;99.90
10572;DHT22;5334;48.928;12.704;2023-03-11T07:03:39;1.50;99.90
10572;DHT22;5334;48.928;12.704;2023-03-11T07:06:05;1.60;99.90
10572;DHT22;5334;48.928;12.704;2023-03-11T07:08:31;1.80;99.90
10572;DHT22;5334;48.928;12.704;2023-03-11T07:11:05;1.90;99.90
10572;DHT22;5334;48.928;12.704;2023-03-11T07:13:31;2.10;99.90
10572;DHT22;5334;48.928;12.704;2023-03-11T07:18:27;1.90;99.90
10572;DHT22;5334;48.928;12.704;2023-03-11T07:20:52;1.80;99.90
10572;DHT22;5334;48.928;12.704;2023-03-11T07:23:18;1.80;99.90
10572;DHT22;5334;48.928;12.704;2023-03-11T07:25:47;1.80;99.90
10572;DHT22;5334;48.928;12.704;2023-03-11T07:28:13;1.80;99.90
10572;DHT22;5334;48.928;12.704;2023-03-11T07:30:39;1.80;99.90
10572;DHT22;5334;48.928;12.704;2023-03-11T07:33:05;1.90;99.90
10572;DHT22;5334;48.928;12.704;2023-03-11T07:35:31;1.90;99.90
10572;DHT22;5334;48.928;12.704;2023-03-11T07:37:56;2.00;99.90
10572;DHT22;5334;48.928;12.704;2023-03-11T07:40:22;2.30;99.90
10572;DHT22;5334;48.928;12.704;2023-03-11T07:42:48;2.30;99.90
10572;DHT22;5334;48.928;12.704;2023-03-11T07:45:13;2.20;99.90
10572;DHT22;5334;48.928;12.704;2023-03-11T07:47:39;2.20;99.90
10572;DHT22;5334;48.928;12.704;2023-03-11T07:50:05;2.20;99.90
10572;DHT22;5334;48.928;12.704;2023-03-11T07:52:31;2.10;99.90
10572;DHT22;5334;48.928;12.704;2023-03-11T07:54:58;2.10;99.90
10572;DHT22;5334;48.928;12.704;2023-03-11T07:57:24;2.10;99.90
10572;DHT22;5334;48.928;12.704;2023-03-11T07:59:49;2.30;99.90
10572;DHT22;5334;48.928;12.704;2023-03-11T08:02:15;2.50;99.90
10572;DHT22;5334;48.928;12.704;2023-03-11T08:04:40;2.70;99.90
10572;DHT22;5334;48.928;12.704;2023-03-11T08:07:06;2.80;99.90
10572;DHT22;5334;48.928;12.704;2023-03-11T08:09:34;2.90;99.90
10572;DHT22;5334;48.928;12.704;2023-03-11T08:12:00;2.90;99.90
10572;DHT22;5334;48.928;12.704;2023-03-11T08:14:26;3.00;99.90
10572;DHT22;5334;48.928;12.704;2023-03-11T08:16:52;3.00;99.90
10572;DHT22;5334;48.928;12.704;2023-03-11T08:19:18;3.00;99.90
10572;DHT22;5334;48.928;12.704;2023-03-11T08:21:44;3.00;99.90
10572;DHT22;5334;48.928;12.704;2023-03-11T08:24:12;2.80;99.90
10572;DHT22;5334;48.928;12.704;2023-03-11T08:26:38;2.80;99.90
10572;DHT22;5334;48.928;12.704;2023-03-11T08:29:04;2.70;99.90
10572;DHT22;5334;48.928;12.704;2023-03-11T08:31:31;2.70;99.90
10572;DHT22;5334;48.928;12.704;2023-03-11T08:34:00;2.80;99.90
10572;DHT22;5334;48.928;12.704;2023-03-11T08:36:26;2.80;99.90
10572;DHT22;5334;48.928;12.704;2023-03-11T08:38:52;2.90;99.90
10572;DHT22;5334;48.928;12.704;2023-03-11T08:41:18;2.90;99.90
10572;DHT22;5334;48.928;12.704;2023-03-11T08:43:43;2.90;99.90
10572;DHT22;5334;48.928;12.704;2023-03-11T08:46:13;2.90;99.90
10572;DHT22;5334;48.928;12.704;2023-03-11T08:48:40;2.90;99.90
10572;DHT22;5334;48.928;12.704;2023-03-11T08:51:13;2.80;99.90
10572;DHT22;5334;48.928;12.704;2023-03-11T08:53:39;2.90;99.90
10572;DHT22;5334;48.928;12.704;2023-03-11T08:56:05;2.80;99.90
10572;DHT22;5334;48.928;12.704;2023-03-11T08:58:31;2.80;99.90
10572;DHT22;5334;48.928;12.704;2023-03-11T09:00:57;2.90;99.90
10572;DHT22;5334;48.928;12.704;2023-03-11T09:03:22;2.90;99.90
10572;DHT22;5334;48.928;12.704;2023-03-11T09:05:54;2.90;99.90
10572;DHT22;5334;48.928;12.704;2023-03-11T09:08:20;2.90;99.90
10572;DHT22;5334;48.928;12.704;2023-03-11T09:10:46;2.90;99.90
10572;DHT22;5334;48.928;12.704;2023-03-11T09:13:11;2.70;99.90
10572;DHT22;5334;48.928;12.704;2023-03-11T09:15:37;2.50;99.90
10572;DHT22;5334;48.928;12.704;2023-03-11T09:18:03;2.30;99.90
10572;DHT22;5334;48.928;12.704;2023-03-11T09:20:28;2.10;99.90
10572;DHT22;5334;48.928;12.704;2023-03-11T09:22:54;1.90;99.90
10572;DHT22;5334;48.928;12.704;2023-03-11T09:25:20;1.70;99.90
10572;DHT22;5334;48.928;12.704;2023-03-11T09:27:45;1.50;99.90
10572;DHT22;5334;48.928;12.704;2023-03-11T09:32:38;1.40;99.90
10572;DHT22;5334;48.928;12.704;2023-03-11T09:35:04;1.30;99.90
10572;DHT22;5334;48.928;12.704;2023-03-11T09:37:30;1.30;99.90
10572;DHT22;5334;48.928;12.704;2023-03-11T09:39:55;1.30;99.90
10572;DHT22;5334;48.928;12.704;2023-03-11T09:42:24;1.40;99.90
10572;DHT22;5334;48.928;12.704;2023-03-11T09:50:33;1.70;99.90
10572;DHT22;5334;48.928;12.704;2023-03-11T09:55:49;2.00;99.90
10572;DHT22;5334;48.928;12.704;2023-03-11T09:58:18;2.00;99.90
10572;DHT22;5334;48.928;12.704;2023-03-11T10:00:46;2.10;99.90
10572;DHT22;5334;48.928;12.704;2023-03-11T10:03:30;2.20;99.90
10572;DHT22;5334;48.928;12.704;2023-03-11T10:06:22;2.40;99.90
10572;DHT22;5334;48.928;12.704;2023-03-11T10:09:06;2.50;99.90
10572;DHT22;5334;48.928;12.704;2023-03-11T10:17:45;2.70;99.90
10572;DHT22;5334;48.928;12.704;2023-03-11T10:25:38;2.80;99.90
10572;DHT22;5334;48.928;12.704;2023-03-11T10:28:11;2.80;99.90
10572;DHT22;5334;48.928;12.704;2023-03-11T10:31:00;2.90;99.90
10572;DHT22;5334;48.928;12.704;2023-03-11T10:36:04;3.00;99.90
10572;DHT22;5334;48.928;12.704;2023-03-11T10:38:38;3.10;99.90
10572;DHT22;5334;48.928;12.704;2023-03-11T10:41:58;3.30;99.90
10572;DHT22;5334;48.928;12.704;2023-03-11T10:44:06;3.40;99.90
10572;DHT22;5334;48.928;12.704;2023-03-11T10:46:34;4.00;99.90
10572;DHT22;5334;48.928;12.704;2023-03-11T10:49:00;4.90;99.90
10572;DHT22;5334;48.928;12.704;2023-03-11T10:51:34;5.80;99.90
10572;DHT22;5334;48.928;12.704;2023-03-11T10:54:01;6.60;99.90
10572;DHT22;5334;48.928;12.704;2023-03-11T10:56:41;7.20;99.90
10572;DHT22;5334;48.928;12.704;2023-03-11T11:05:43;6.40;99.90
10572;DHT22;5334;48.928;12.704;2023-03-11T11:08:15;5.80;99.90
10572;DHT22;5334;48.928;12.704;2023-03-11T11:10:52;5.50;99.90
10572;DHT22;5334;48.928;12.704;2023-03-11T11:13:21;5.40;99.90
10572;DHT22;5334;48.928;12.704;2023-03-11T11:16:05;5.30;99.90
10572;DHT22;5334;48.928;12.704;2023-03-11T11:18:41;5.20;99.90
10572;DHT22;5334;48.928;12.704;2023-03-11T11:21:13;5.30;99.90
10572;DHT22;5334;48.928;12.704;2023-03-11T11:23:50;5.40;99.90
10572;DHT22;5334;48.928;12.704;2023-03-11T11:26:26;5.80;99.90
10572;DHT22;5334;48.928;12.704;2023-03-11T11:29:14;6.40;99.90
10572;DHT22;5334;48.928;12.704;2023-03-11T11:31:43;6.70;99.90
10572;DHT22;5334;48.928;12.704;2023-03-11T11:34:30;6.80;99.90
10572;DHT22;5334;48.928;12.704;2023-03-11T11:36:59;6.60;99.90
10572;DHT22;5334;48.928;12.704;2023-03-11T11:39:29;6.60;99.90
10572;DHT22;5334;48.928;12.704;2023-03-11T11:41:56;6.40;99.90
10572;DHT22;5334;48.928;12.704;2023-03-11T11:44:31;6.30;99.90
10572;DHT22;5334;48.928;12.704;2023-03-11T11:47:23;6.30;99.90
10572;DHT22;5334;48.928;12.704;2023-03-11T11:50:00;6.20;99.90
10572;DHT22;5334;48.928;12.704;2023-03-11T11:55:28;6.20;99.90
10572;DHT22;5334;48.928;12.704;2023-03-11T11:57:55;6.10;99.90
10572;DHT22;5334;48.928;12.704;2023-03-11T12:03:15;5.70;99.90
10572;DHT22;5334;48.928;12.704;2023-03-11T12:05:58;5.80;99.90
10572;DHT22;5334;48.928;12.704;2023-03-11T12:11:27;6.60;99.90
10572;DHT22;5334;48.928;12.704;2023-03-11T12:14:19;6.40;99.90
10572;DHT22;5334;48.928;12.704;2023-03-11T12:16:59;6.30;99.90
10572;DHT22;5334;48.928;12.704;2023-03-11T12:27:25;4.80;99.90
10572;DHT22;5334;48.928;12.704;2023-03-11T12:29:55;4.70;99.90
10572;DHT22;5334;48.928;12.704;2023-03-11T12:34:52;4.60;99.90
10572;DHT22;5334;48.928;12.704;2023-03-11T12:37:20;4.60;99.90
10572;DHT22;5334;48.928;12.704;2023-03-11T12:39:47;4.50;99.90
10572;DHT22;5334;48.928;12.704;2023-03-11T12:44:39;4.30;99.90
10572;DHT22;5334;48.928;12.704;2023-03-11T12:49:44;4.10;99.90
10572;DHT22;5334;48.928;12.704;2023-03-11T12:54:44;3.90;99.90
10572;DHT22;5334;48.928;12.704;2023-03-11T13:00:21;3.70;99.90
10572;DHT22;5334;48.928;12.704;2023-03-11T13:03:13;3.70;99.90
10572;DHT22;5334;48.928;12.704;2023-03-11T13:06:11;3.80;99.90
10572;DHT22;5334;48.928;12.704;2023-03-11T13:08:56;3.80;99.90
10572;DHT22;5334;48.928;12.704;2023-03-11T13:16:47;3.70;99.90
10572;DHT22;5334;48.928;12.704;2023-03-11T13:21:52;3.90;99.90
10572;DHT22;5334;48.928;12.704;2023-03-11T13:26:51;4.00;99.90
10572;DHT22;5334;48.928;12.704;2023-03-11T13:38:27;4.20;99.90
10572;DHT22;5334;48.928;12.704;2023-03-11T13:40:53;4.40;99.90
10572;DHT22;5334;48.928;12.704;2023-03-11T13:43:23;4.30;99.90
10572;DHT22;5334;48.928;12.704;2023-03-11T13:45:56;4.40;99.90
10572;DHT22;5334;48.928;12.704;2023-03-11T13:48:38;4.30;99.90
10572;DHT22;5334;48.928;12.704;2023-03-11T13:51:23;4.40;99.90
10572;DHT22;5334;48.928;12.704;2023-03-11T13:54:01;4.50;99.90
10572;DHT22;5334;48.928;12.704;2023-03-11T13:56:30;4.40;99.90
10572;DHT22;5334;48.928;12.704;2023-03-11T13:59:16;4.30;99.90
10572;DHT22;5334;48.928;12.704;2023-03-11T14:02:35;4.20;99.90
10572;DHT22;5334;48.928;12.704;2023-03-11T14:04:47;4.30;99.90
10572;DHT22;5334;48.928;12.704;2023-03-11T14:07:33;4.40;99.90
10572;DHT22;5334;48.928;12.704;2023-03-11T14:10:19;4.40;99.90
10572;DHT22;5334;48.928;12.704;2023-03-11T14:12:45;4.40;99.90
10572;DHT22;5334;48.928;12.704;2023-03-11T14:15:35;4.30;99.90
10572;DHT22;5334;48.928;12.704;2023-03-11T14:18:32;4.10;99.90
10572;DHT22;5334;48.928;12.704;2023-03-11T14:20:59;4.00;99.90
10572;DHT22;5334;48.928;12.704;2023-03-11T14:23:39;4.00;99.90
10572;DHT22;5334;48.928;12.704;2023-03-11T14:26:10;4.00;99.90
10572;DHT22;5334;48.928;12.704;2023-03-11T14:28:40;4.00;99.90
10572;DHT22;5334;48.928;12.704;2023-03-11T14:31:06;4.00;99.90
10572;DHT22;5334;48.928;12.704;2023-03-11T14:33:56;4.10;99.90
10572;DHT22;5334;48.928;12.704;2023-03-11T14:36:50;4.20;99.90
10572;DHT22;5334;48.928;12.704;2023-03-11T14:42:06;4.30;99.90
10572;DHT22;5334;48.928;12.704;2023-03-11T14:44:40;4.20;99.90
10572;DHT22;5334;48.928;12.704;2023-03-11T14:50:05;4.10;99.90
10572;DHT22;5334;48.928;12.704;2023-03-11T14:52:39;4.00;99.90
10572;DHT22;5334;48.928;12.704;2023-03-11T14:55:13;3.90;99.90
10572;DHT22;5334;48.928;12.704;2023-03-11T14:57:44;3.90;99.90
10572;DHT22;5334;48.928;12.704;2023-03-11T15:00:23;4.00;99.90
10572;DHT22;5334;48.928;12.704;2023-03-11T15:03:00;4.00;99.90
10572;DHT22;5334;48.928;12.704;2023-03-11T15:05:38;4.00;99.90
10572;DHT22;5334;48.928;12.704;2023-03-11T15:08:07;4.00;99.90
10572;DHT22;5334;48.928;12.704;2023-03-11T15:10:33;3.90;99.90
10572;DHT22;5334;48.928;12.704;2023-03-11T15:13:14;3.90;99.90
10572;DHT22;5334;48.928;12.704;2023-03-11T15:15:40;4.00;99.90
10572;DHT22;5334;48.928;12.704;2023-03-11T15:18:21;3.80;99.90
10572;DHT22;5334;48.928;12.704;2023-03-11T15:21:13;3.70;99.90
10572;DHT22;5334;48.928;12.704;2023-03-11T15:23:44;3.80;99.90
10572;DHT22;5334;48.928;12.704;2023-03-11T15:26:31;3.80;99.90
10572;DHT22;5334;48.928;12.704;2023-03-11T15:29:01;3.80;99.90
10572;DHT22;5334;48.928;12.704;2023-03-11T15:31:28;3.80;99.90
10572;DHT22;5334;48.928;12.704;2023-03-11T15:34:28;3.80;99.90
10572;DHT22;5334;48.928;12.704;2023-03-11T15:36:56;3.90;99.90
10572;DHT22;5334;48.928;12.704;2023-03-11T15:44:49;3.90;99.90
10572;DHT22;5334;48.928;12.704;2023-03-11T15:47:21;3.90;99.90
10572;DHT22;5334;48.928;12.704;2023-03-11T15:49:47;3.90;99.90
10572;DHT22;5334;48.928;12.704;2023-03-11T15:52:14;3.80;99.90
10572;DHT22;5334;48.928;12.704;2023-03-11T15:54:40;3.70;99.90
10572;DHT22;5334;48.928;12.704;2023-03-11T15:57:26;3.70;99.90
10572;DHT22;5334;48.928;12.704;2023-03-11T15:59:54;3.60;99.90
10572;DHT22;5334;48.928;12.704;2023-03-11T16:02:23;3.60;99.90
10572;DHT22;5334;48.928;12.704;2023-03-11T16:04:50;3.40;99.90
10572;DHT22;5334;48.928;12.704;2023-03-11T16:07:16;3.40;99.90
10572;DHT22;5334;48.928;12.704;2023-03-11T16:09:41;3.50;99.90
10572;DHT22;5334;48.928;12.704;2023-03-11T16:14:41;3.50;99.90
10572;DHT22;5334;48.928;12.704;2023-03-11T16:17:07;3.60;99.90
10572;DHT22;5334;48.928;12.704;2023-03-11T16:19:33;3.60;99.90
10572;DHT22;5334;48.928;12.704;2023-03-11T16:21:59;3.60;99.90
10572;DHT22;5334;48.928;12.704;2023-03-11T16:24:24;3.60;99.90
10572;DHT22;5334;48.928;12.704;2023-03-11T16:26:51;3.50;99.90
10572;DHT22;5334;48.928;12.704;2023-03-11T16:29:18;3.50;99.90
10572;DHT22;5334;48.928;12.704;2023-03-11T16:31:44;3.50;99.90
10572;DHT22;5334;48.928;12.704;2023-03-11T16:34:10;3.40;99.90
10572;DHT22;5334;48.928;12.704;2023-03-11T16:36:35;3.40;99.90
10572;DHT22;5334;48.928;12.704;2023-03-11T16:39:01;3.40;99.90
10572;DHT22;5334;48.928;12.704;2023-03-11T16:41:27;3.30;99.90
10572;DHT22;5334;48.928;12.704;2023-03-11T16:43:53;3.30;99.90
10572;DHT22;5334;48.928;12.704;2023-03-11T16:46:19;3.30;99.90
10572;DHT22;5334;48.928;12.704;2023-03-11T16:48:45;3.20;99.90
10572;DHT22;5334;48.928;12.704;2023-03-11T16:51:10;3.20;99.90
10572;DHT22;5334;48.928;12.704;2023-03-11T16:53:36;3.20;99.90
10572;DHT22;5334;48.928;12.704;2023-03-11T16:56:04;3.20;99.90
10572;DHT22;5334;48.928;12.704;2023-03-11T16:58:29;3.20;99.90
10572;DHT22;5334;48.928;12.704;2023-03-11T17:00:55;3.20;99.90
10572;DHT22;5334;48.928;12.704;2023-03-11T17:03:21;3.20;99.90
10572;DHT22;5334;48.928;12.704;2023-03-11T17:05:46;3.20;99.90
10572;DHT22;5334;48.928;12.704;2023-03-11T17:08:12;3.20;99.90
10572;DHT22;5334;48.928;12.704;2023-03-11T17:10:40;3.20;99.90
10572;DHT22;5334;48.928;12.704;2023-03-11T17:13:09;3.10;99.90
10572;DHT22;5334;48.928;12.704;2023-03-11T17:15:35;3.10;99.90
10572;DHT22;5334;48.928;12.704;2023-03-11T17:18:03;3.10;99.90
10572;DHT22;5334;48.928;12.704;2023-03-11T17:20:29;3.10;99.90
10572;DHT22;5334;48.928;12.704;2023-03-11T17:22:55;3.10;99.90
10572;DHT22;5334;48.928;12.704;2023-03-11T17:25:20;3.10;99.90
10572;DHT22;5334;48.928;12.704;2023-03-11T17:27:47;3.00;99.90
10572;DHT22;5334;48.928;12.704;2023-03-11T17:30:13;3.10;99.90
10572;DHT22;5334;48.928;12.704;2023-03-11T17:32:39;3.00;99.90
10572;DHT22;5334;48.928;12.704;2023-03-11T17:35:05;3.00;99.90
10572;DHT22;5334;48.928;12.704;2023-03-11T17:37:31;3.00;99.90
10572;DHT22;5334;48.928;12.704;2023-03-11T17:39:56;3.00;99.90
10572;DHT22;5334;48.928;12.704;2023-03-11T17:42:22;3.00;99.90
10572;DHT22;5334;48.928;12.704;2023-03-11T17:44:48;2.90;99.90
10572;DHT22;5334;48.928;12.704;2023-03-11T17:47:14;2.90;99.90
10572;DHT22;5334;48.928;12.704;2023-03-11T17:49:39;2.80;99.90
10572;DHT22;5334;48.928;12.704;2023-03-11T17:52:05;2.80;99.90
10572;DHT22;5334;48.928;12.704;2023-03-11T17:54:31;2.80;99.90